Time;durP1;ratioP1;P1;durP2;ratioP2;P2;SDS_P1;SDS_P2;PMS_P1;PMS_P2;Temp;Humidity;BMP_temperature;BMP_pressure;BME280_temperature;BME280_humidity;BME280_pressure;Samples;Min_cycle;Max_cycle;Signal;HPM_P1;HPM_P2
2021/05/31 00:00:37;;;;;;;8.23;5.55;;;;;;;2.99;66.85;100618.70;1754405;81;21040;-64
2021/05/31 00:03:05;;;;;;;9.38;5.37;;;;;;;2.97;66.99;100615.25;1761714;79;21012;-64
2021/05/31 00:05:32;;;;;;;8.18;5.05;;;;;;;2.89;66.92;100610.98;1743982;80;21818;-64
2021/05/31 00:07:59;;;;;;;11.33;5.93;;;;;;;2.76;67.15;100598.95;1755210;80;21601;-64
2021/05/31 00:10:26;;;;;;;10.50;6.33;;;;;;;2.76;67.15;100598.95;1759515;81;20981;-64
2021/05/31 00:12:54;;;;;;;27.07;12.50;;;;;;;2.81;67.16;100615.29;1757304;79;21729;-64
2021/05/31 00:15:21;;;;;;;;;;;;;;;2.80;67.37;100614.88;1772058;79;21760;-64
2021/05/31 00:17:48;;;;;;;28.35;15.15;;;;;;;2.81;67.68;100616.58;1756452;81;21071;-64
2021/05/31 00:20:17;;;;;;;11.48;7.03;;;;;;;2.80;67.48;100608.42;1777352;79;21653;-64
2021/05/31 00:22:45;;;;;;;12.78;8.30;;;;;;;2.79;67.47;100611.84;1783890;79;21570;-64
2021/05/31 00:25:13;;;;;;;14.38;8.48;;;;;;;2.79;67.58;100605.39;1782095;79;21584;-64
2021/05/31 00:27:40;;;;;;;22.13;11.78;;;;;;;2.81;67.57;100617.88;1786002;79;21022;-64
2021/05/31 00:30:09;;;;;;;24.23;10.55;;;;;;;2.80;67.78;100603.27;1752833;79;21795;-64
2021/05/31 00:32:36;;;;;;;18.27;9.48;;;;;;;2.80;67.92;100605.84;1750920;81;21019;-65
2021/05/31 00:35:05;;;;;;;21.35;9.93;;;;;;;2.80;68.00;100607.13;1751419;80;21035;-64
2021/05/31 00:37:31;;;;;;;11.50;7.53;;;;;;;2.79;67.96;100601.53;1778917;79;21042;-64
2021/05/31 00:39:58;;;;;;;17.67;7.63;;;;;;;2.77;67.98;100603.24;1775719;79;20953;-64
2021/05/31 00:42:25;;;;;;;13.18;8.13;;;;;;;2.73;68.06;100598.96;1772727;79;21149;-64
2021/05/31 00:44:52;;;;;;;12.85;8.33;;;;;;;2.69;68.13;100603.71;1748314;81;20984;-64
2021/05/31 00:47:18;;;;;;;10.18;5.40;;;;;;;2.65;68.27;100598.11;1769949;79;20989;-64
2021/05/31 00:49:45;;;;;;;12.05;6.80;;;;;;;2.63;68.11;100601.11;1772171;78;21665;-64
2021/05/31 00:52:11;;;;;;;10.45;6.50;;;;;;;2.58;68.11;100597.27;1752673;80;20921;-64
2021/05/31 00:54:38;;;;;;;11.75;6.70;;;;;;;2.55;68.27;100602.83;1753310;81;21014;-64
2021/05/31 00:57:06;;;;;;;7.85;5.72;;;;;;;2.52;68.28;100602.84;1756654;80;21064;-65
2021/05/31 00:59:33;;;;;;;13.78;6.85;;;;;;;2.48;68.27;100605.00;1753437;80;21039;-64
2021/05/31 01:01:59;;;;;;;10.82;6.25;;;;;;;2.44;68.44;100602.42;1754928;80;21012;-65
2021/05/31 01:04:26;;;;;;;12.50;6.78;;;;;;;2.40;68.43;100592.95;1751625;80;21014;-64
2021/05/31 01:07:24;;;;;;;10.60;7.45;;;;;;;2.38;68.58;100595.98;1778505;79;22169;-64
2021/05/31 01:10:08;;;;;;;15.68;7.33;;;;;;;2.32;68.64;100590.80;1774050;80;21065;-64
2021/05/31 01:12:55;;;;;;;14.70;8.25;;;;;;;2.28;68.83;100585.23;1745785;81;21003;-64
2021/05/31 01:15:33;;;;;;;;;;;;;;;2.24;68.85;100587.36;1784005;80;21726;-64
2021/05/31 01:18:14;;;;;;;9.75;6.72;;;;;;;2.24;69.12;100591.23;1750972;81;20177;-64
2021/05/31 01:21:21;;;;;;;9.50;6.67;;;;;;;2.22;68.96;100583.95;1777950;79;21468;-64
2021/05/31 01:23:50;;;;;;;;;;;;;;;2.20;69.00;100583.08;1776022;78;20981;-64
2021/05/31 01:26:21;;;;;;;10.93;7.15;;;;;;;2.16;69.14;100582.66;1774150;79;20139;-64
2021/05/31 01:29:06;;;;;;;13.25;7.33;;;;;;;2.12;69.08;100583.06;1770076;79;21016;-65
2021/05/31 01:31:47;;;;;;;10.82;7.25;;;;;;;2.09;69.16;100580.92;1775350;80;21011;-64
2021/05/31 01:34:26;;;;;;;12.68;7.00;;;;;;;2.10;69.32;100573.61;1773107;80;21906;-64
2021/05/31 01:37:07;;;;;;;16.40;7.65;;;;;;;2.07;69.49;100576.19;1747015;81;22274;-64
2021/05/31 01:39:38;;;;;;;12.58;7.85;;;;;;;2.04;69.45;100574.91;1771041;79;21036;-64
2021/05/31 01:42:07;;;;;;;14.40;7.70;;;;;;;2.04;69.55;100578.77;1782474;78;21122;-65
2021/05/31 01:44:34;;;;;;;13.95;6.35;;;;;;;2.03;69.68;100574.05;1779386;78;21013;-65
2021/05/31 01:47:01;;;;;;;11.95;7.22;;;;;;;1.98;69.79;100567.59;1781651;78;21868;-65
2021/05/31 01:49:29;;;;;;;11.15;6.40;;;;;;;1.96;69.72;100577.06;1757187;79;21125;-65
2021/05/31 01:51:58;;;;;;;12.07;7.45;;;;;;;1.94;69.80;100572.33;1757047;79;21029;-65
2021/05/31 01:54:27;;;;;;;12.05;7.22;;;;;;;1.93;69.85;100576.17;1780935;78;21036;-65
2021/05/31 01:56:55;;;;;;;15.25;9.30;;;;;;;1.93;70.14;100568.05;1781360;79;21116;-65
2021/05/31 01:59:22;;;;;;;19.73;11.28;;;;;;;1.98;70.28;100567.59;1781201;79;21461;-64
2021/05/31 02:01:52;;;;;;;;;;;;;;;2.04;70.49;100571.04;1757377;79;20986;-65
2021/05/31 02:04:19;;;;;;;16.57;9.45;;;;;;;2.09;70.63;100570.62;1759295;80;20141;-65
2021/05/31 02:06:45;;;;;;;14.57;8.60;;;;;;;2.06;70.27;100571.47;1744493;81;20983;-65
2021/05/31 02:09:12;;;;;;;15.55;7.62;;;;;;;2.07;70.25;100571.89;1755515;79;21067;-65
2021/05/31 02:11:53;;;;;;;20.75;11.12;;;;;;;2.07;70.21;100569.75;1758348;81;21145;-65
2021/05/31 02:14:50;;;;;;;17.87;9.05;;;;;;;2.07;70.30;100574.91;1781144;79;20958;-65
2021/05/31 02:17:56;;;;;;;15.88;9.30;;;;;;;2.09;70.41;100573.20;1698243;83;20971;-65
2021/05/31 02:20:25;;;;;;;16.85;9.03;;;;;;;2.12;70.43;100570.62;1727539;81;21096;-64
2021/05/31 02:22:58;;;;;;;13.62;8.33;;;;;;;2.14;70.53;100572.34;1709084;82;21654;-65
2021/05/31 02:25:27;;;;;;;13.78;8.45;;;;;;;2.16;70.60;100568.06;1730871;81;21290;-65
2021/05/31 02:27:58;;;;;;;15.28;8.18;;;;;;;2.18;70.66;100568.04;1729162;81;21120;-65
2021/05/31 02:30:26;;;;;;;14.43;8.55;;;;;;;2.19;70.60;100569.78;1714452;83;21073;-65
2021/05/31 02:33:04;;;;;;;19.27;8.78;;;;;;;2.21;70.67;100568.04;1729687;81;21112;-64
2021/05/31 02:35:35;;;;;;;13.58;8.13;;;;;;;2.24;70.57;100560.31;1735045;81;21553;-64
2021/05/31 02:38:05;;;;;;;13.58;7.47;;;;;;;2.23;70.59;100563.75;1737073;81;21120;-64
2021/05/31 02:40:33;;;;;;;13.40;8.35;;;;;;;2.20;70.56;100567.62;1726610;81;21632;-65
2021/05/31 02:43:04;;;;;;;15.25;9.18;;;;;;;2.17;70.63;100566.34;1723538;81;21049;-65
2021/05/31 02:45:32;;;;;;;16.77;8.25;;;;;;;2.22;70.77;100564.62;1716335;81;21067;-64
2021/05/31 02:48:00;;;;;;;16.57;8.73;;;;;;;2.34;70.89;100561.19;1726611;81;21038;-65
2021/05/31 02:50:28;;;;;;;19.67;8.20;;;;;;;2.58;71.09;100557.74;1724727;81;21544;-65
2021/05/31 02:52:57;;;;;;;14.05;7.25;;;;;;;3.25;71.36;100553.69;1720479;81;21099;-65
2021/05/31 02:55:27;;;;;;;12.03;7.90;;;;;;;4.25;71.47;100557.80;1754767;78;21068;-65
2021/05/31 02:57:54;;;;;;;9.78;6.50;;;;;;;5.21;70.76;100551.67;1716701;81;21633;-65
2021/05/31 03:00:24;;;;;;;9.23;6.25;;;;;;;6.17;70.45;100546.92;1727128;81;21598;-65
2021/05/31 03:02:51;;;;;;;9.73;6.28;;;;;;;7.12;70.07;100541.33;1722403;81;21041;-66
2021/05/31 03:05:22;;;;;;;13.88;6.65;;;;;;;8.22;70.00;100545.36;1718409;81;21047;-66
2021/05/31 03:07:49;;;;;;;17.10;5.50;;;;;;;9.22;69.34;100541.92;1725421;81;21008;-66
2021/05/31 03:10:17;;;;;;;14.33;5.35;;;;;;;9.77;67.98;100535.89;1724203;81;21076;-66
2021/05/31 03:12:45;;;;;;;9.63;5.08;;;;;;;10.30;67.86;100532.50;1720270;81;21601;-67
2021/05/31 03:15:16;;;;;;;7.92;5.35;;;;;;;10.96;67.33;100537.62;1722107;81;21039;-66
2021/05/31 03:17:44;;;;;;;10.43;5.40;;;;;;;11.53;67.02;100535.97;1722700;81;20993;-66
2021/05/31 03:20:12;;;;;;;12.65;5.80;;;;;;;12.19;66.92;100538.19;1722928;81;22765;-66
2021/05/31 03:22:39;;;;;;;10.70;5.45;;;;;;;12.75;66.27;100538.87;1726751;81;20956;-67
2021/05/31 03:25:06;;;;;;;;;;;;;;;13.29;65.86;100533.05;1728168;81;20962;-67
2021/05/31 03:27:33;;;;;;;9.45;5.75;;;;;;;13.73;64.80;100532.77;1716086;81;21456;-66
2021/05/31 03:30:00;;;;;;;14.95;6.10;;;;;;;14.15;65.42;100529.00;1722574;81;20981;-66
2021/05/31 03:32:26;;;;;;;16.35;6.17;;;;;;;14.75;65.45;100525.53;1726160;81;20999;-66
2021/05/31 03:34:53;;;;;;;12.93;6.33;;;;;;;15.27;65.34;100529.36;1728279;81;21061;-67
2021/05/31 03:37:20;;;;;;;13.25;5.58;;;;;;;16.12;65.36;100528.17;1724233;81;21076;-66
2021/05/31 03:39:46;;;;;;;10.72;5.47;;;;;;;17.00;64.81;100518.61;1722677;81;21079;-67
2021/05/31 03:42:13;;;;;;;20.35;6.67;;;;;;;17.44;63.88;100525.53;1748782;81;21157;-67
2021/05/31 03:44:39;;;;;;;13.38;6.22;;;;;;;17.56;62.50;100516.85;1752951;80;21028;-67
2021/05/31 03:47:06;;;;;;;11.78;6.58;;;;;;;17.36;62.01;100517.24;1748636;81;21614;-67
2021/05/31 03:49:33;;;;;;;20.40;6.28;;;;;;;17.40;61.85;100521.41;1749648;81;21034;-67
2021/05/31 03:51:59;;;;;;;;;;;;;;;17.65;61.92;100516.25;1756254;81;21096;-67
2021/05/31 03:54:26;;;;;;;13.95;5.62;;;;;;;18.27;61.53;100509.63;1748285;81;20186;-67
2021/05/31 03:56:53;;;;;;;12.18;5.17;;;;;;;18.75;61.05;100513.89;1748224;81;21041;-67
2021/05/31 03:59:19;;;;;;;;;;;;;;;19.04;60.14;100509.70;1759190;81;21618;-67
2021/05/31 04:01:47;;;;;;;;;;;;;;;19.24;59.35;100515.78;1756980;79;20209;-65
2021/05/31 04:04:14;;;;;;;18.73;5.90;;;;;;;19.57;59.27;100513.81;1749073;81;21050;-65
2021/05/31 04:12:01;;;;;;;14.98;5.90;;;;;;;21.52;59.96;100514.13;1747061;81;21648;-65
2021/05/31 04:14:28;;;;;;;20.20;7.17;;;;;;;22.25;59.29;100518.74;1743730;81;21110;-65
2021/05/31 04:16:56;;;;;;;16.37;6.15;;;;;;;22.65;58.23;100517.19;1743263;81;21050;-65
2021/05/31 04:19:25;;;;;;;7.22;3.67;;;;;;;23.00;57.66;100516.37;1742995;81;21019;-65
2021/05/31 04:21:54;;;;;;;12.88;4.03;;;;;;;23.12;56.80;100519.78;1739546;81;21055;-65
2021/05/31 04:24:21;;;;;;;6.67;3.08;;;;;;;22.82;55.38;100523.73;1742562;81;21583;-65
2021/05/31 04:26:49;;;;;;;5.33;3.12;;;;;;;22.86;56.49;100523.34;1741294;81;21641;-65
2021/05/31 04:29:16;;;;;;;6.87;3.30;;;;;;;22.76;54.91;100523.77;1750033;80;21075;-65
2021/05/31 04:31:43;;;;;;;6.62;3.08;;;;;;;22.81;55.67;100522.89;1755527;81;21011;-65
2021/05/31 04:34:12;;;;;;;4.92;2.83;;;;;;;23.34;56.49;100522.73;1718485;81;21030;-65
2021/05/31 04:36:43;;;;;;;5.50;2.58;;;;;;;23.88;55.59;100520.14;1734143;82;21056;-65
2021/05/31 04:39:09;;;;;;;5.03;2.67;;;;;;;24.45;55.20;100514.11;1745472;80;21633;-65
2021/05/31 04:41:38;;;;;;;7.17;2.42;;;;;;;24.57;53.72;100516.98;1768737;79;21041;-65
2021/05/31 04:44:06;;;;;;;3.85;2.10;;;;;;;24.55;53.90;100517.62;1769856;79;21010;-65
2021/05/31 04:46:33;;;;;;;4.65;2.40;;;;;;;24.26;52.55;100513.13;1747297;80;21032;-65
2021/05/31 04:49:01;;;;;;;6.37;2.65;;;;;;;24.66;53.00;100512.11;1769776;78;21036;-65
2021/05/31 04:51:29;;;;;;;3.52;2.35;;;;;;;24.02;50.54;100516.72;1769780;79;20986;-65
2021/05/31 04:53:59;;;;;;;7.03;2.75;;;;;;;23.70;51.51;100512.45;1774431;78;21104;-65
2021/05/31 04:56:27;;;;;;;3.85;2.35;;;;;;;23.22;51.07;100507.84;1775352;80;21579;-65
2021/05/31 04:58:54;;;;;;;5.45;2.10;;;;;;;23.46;51.37;100508.31;1750840;81;20995;-65
2021/05/31 05:01:21;;;;;;;3.85;2.10;;;;;;;23.81;50.94;100507.02;1770274;78;20990;-67
2021/05/31 05:03:48;;;;;;;4.47;2.30;;;;;;;23.43;50.13;100499.76;1743039;80;21589;-66
2021/05/31 05:06:14;;;;;;;9.15;2.83;;;;;;;23.90;51.37;100502.67;1753023;81;21841;-67
2021/05/31 05:08:41;;;;;;;6.92;2.25;;;;;;;23.78;49.17;100501.97;1750999;81;21004;-66
2021/05/31 05:11:08;;;;;;;3.15;1.87;;;;;;;23.61;49.08;100501.26;1751126;81;21070;-66
2021/05/31 05:13:35;;;;;;;3.45;1.90;;;;;;;23.71;49.65;100498.16;1749275;81;21602;-67
2021/05/31 05:16:01;;;;;;;3.77;1.90;;;;;;;23.37;48.31;100506.47;1753143;81;21564;-67
2021/05/31 05:18:28;;;;;;;5.37;2.58;;;;;;;23.77;49.43;100500.27;1747282;81;21342;-65
2021/05/31 05:20:55;;;;;;;4.05;2.35;;;;;;;23.42;47.70;100498.92;1774981;78;21548;-66
2021/05/31 05:23:21;;;;;;;5.00;2.10;;;;;;;22.85;47.61;100495.02;1772305;78;22133;-66
2021/05/31 05:25:49;;;;;;;3.95;2.15;;;;;;;23.14;48.74;100501.02;1746576;81;21060;-65
2021/05/31 05:28:16;;;;;;;5.65;1.90;;;;;;;23.01;46.85;100503.39;1767916;78;20990;-66
2021/05/31 05:30:42;;;;;;;3.77;2.08;;;;;;;22.26;45.32;100497.81;1769536;78;22545;-65
2021/05/31 05:33:11;;;;;;;4.22;1.87;;;;;;;21.77;46.39;100505.02;1754374;80;21009;-65
2021/05/31 05:35:44;;;;;;;5.60;1.87;;;;;;;21.52;45.37;100500.36;1769128;78;20961;-65
2021/05/31 05:38:30;;;;;;;3.50;1.98;;;;;;;21.24;46.03;100500.36;1760782;79;21081;-68
2021/05/31 05:43:39;;;;;;;6.58;2.60;;;;;;;20.12;44.32;100508.96;1779140;79;21067;-66
2021/05/31 05:48:32;;;;;;;5.22;2.60;;;;;;;20.29;45.10;100497.92;1760776;81;20971;-68
2021/05/31 05:51:05;;;;;;;4.40;2.15;;;;;;;20.16;45.91;100497.16;1749032;81;21005;-65
2021/05/31 05:53:35;;;;;;;4.97;2.17;;;;;;;20.34;45.15;100497.59;1784432;80;21962;-65
2021/05/31 05:56:05;;;;;;;3.22;2.05;;;;;;;20.02;44.75;100497.34;1775794;79;21061;-66
2021/05/31 05:58:35;;;;;;;3.00;2.00;;;;;;;19.73;44.29;100505.64;1745425;80;21007;-66
2021/05/31 06:01:02;;;;;;;3.95;2.00;;;;;;;19.38;45.30;100501.08;1784547;79;21032;-65
2021/05/31 06:03:29;;;;;;;4.45;2.02;;;;;;;19.85;44.70;100504.73;1752538;80;21094;-66
2021/05/31 06:05:59;;;;;;;5.70;1.95;;;;;;;19.66;44.64;100507.03;1754734;80;21025;-65
2021/05/31 06:08:26;;;;;;;3.58;1.98;;;;;;;19.53;44.31;100504.41;1779857;78;22458;-68
2021/05/31 06:10:53;;;;;;;5.35;1.67;;;;;;;19.39;44.48;100509.86;1776653;79;20990;-66
2021/05/31 06:13:20;;;;;;;4.80;2.27;;;;;;;19.43;45.22;100498.92;1776192;79;21621;-66
2021/05/31 06:15:47;;;;;;;5.20;2.20;;;;;;;19.58;44.97;100504.09;1773982;79;21006;-67
2021/05/31 06:18:13;;;;;;;;;;;;;;;19.80;45.57;100501.60;1758758;81;21063;-67
2021/05/31 06:20:41;;;;;;;4.80;2.02;;;;;;;19.98;45.02;100499.88;1777419;78;21290;-66
2021/05/31 06:23:11;;;;;;;3.75;1.82;;;;;;;20.10;44.82;100505.57;1771369;78;21056;-66
2021/05/31 06:25:39;;;;;;;7.30;2.17;;;;;;;20.09;44.86;100502.56;1758574;80;21635;-66
2021/05/31 06:28:07;;;;;;;8.43;1.92;;;;;;;20.41;44.93;100509.41;1741378;80;20993;-66
2021/05/31 06:30:39;;;;;;;4.97;1.80;;;;;;;20.48;44.26;100499.20;1778894;79;21756;-66
2021/05/31 06:33:06;;;;;;;6.15;2.40;;;;;;;20.32;44.03;100497.69;1750897;80;21103;-66
2021/05/31 06:35:33;;;;;;;4.00;1.92;;;;;;;20.49;44.74;100503.53;1750885;80;21764;-66
2021/05/31 06:38:13;;;;;;;4.42;2.10;;;;;;;19.88;40.49;100505.86;1751737;80;21070;-65
2021/05/31 06:40:43;;;;;;;5.22;1.98;;;;;;;19.27;42.93;100502.32;1774689;78;21669;-64
2021/05/31 06:43:25;;;;;;;8.98;2.00;;;;;;;19.25;43.73;100505.55;1768463;78;21582;-65
2021/05/31 06:45:59;;;;;;;8.30;2.20;;;;;;;19.74;43.90;100502.02;1749658;80;21825;-65
2021/05/31 06:48:32;;;;;;;5.03;2.15;;;;;;;20.08;44.28;100502.18;1748692;81;21068;-65
2021/05/31 06:51:05;;;;;;;4.75;1.85;;;;;;;19.79;42.21;100503.86;1752204;80;21181;-64
2021/05/31 06:53:37;;;;;;;3.55;1.90;;;;;;;19.00;41.71;100503.78;1750452;81;21042;-65
2021/05/31 06:56:30;;;;;;;2.70;1.67;;;;;;;18.74;43.12;100500.31;1756239;81;21084;-65
2021/05/31 06:59:01;;;;;;;3.65;2.00;;;;;;;19.11;42.60;100495.09;1616988;86;21660;-66
2021/05/31 07:01:31;;;;;;;3.77;1.60;;;;;;;19.53;43.99;100492.98;1658544;85;21051;-66
2021/05/31 07:04:01;;;;;;;3.95;1.50;;;;;;;20.09;43.18;100491.48;1607564;85;21074;-66
2021/05/31 07:06:31;;;;;;;3.55;1.75;;;;;;;20.02;42.15;100485.41;1636717;85;21173;-66
2021/05/31 07:09:03;;;;;;;4.03;1.80;;;;;;;19.35;41.63;100507.92;1654860;85;21085;-66
2021/05/31 07:11:33;;;;;;;3.22;1.67;;;;;;;19.20;42.34;100485.17;1658283;85;21242;-66
2021/05/31 07:14:04;;;;;;;2.37;1.62;;;;;;;18.86;39.67;100486.22;1613197;86;21858;-65
2021/05/31 07:16:35;;;;;;;4.22;1.70;;;;;;;18.54;42.28;100490.59;1651603;85;21099;-66
2021/05/31 07:19:04;;;;;;;3.58;1.67;;;;;;;19.06;42.41;100482.66;1656899;85;21044;-65
2021/05/31 07:21:58;;;;;;;3.92;1.50;;;;;;;19.47;42.21;100474.89;1653704;85;21087;-66
2021/05/31 07:24:31;;;;;;;4.20;1.77;;;;;;;18.88;40.20;100477.70;1717561;81;21233;-66
2021/05/31 07:27:01;;;;;;;2.33;1.35;;;;;;;18.23;41.11;100477.73;1721965;81;22783;-65
2021/05/31 07:29:30;;;;;;;4.40;1.67;;;;;;;17.39;40.05;100472.17;1659291;82;21020;-66
2021/05/31 07:31:56;;;;;;;2.95;1.65;;;;;;;16.90;41.30;100477.90;1656547;82;21101;-67
2021/05/31 07:34:23;;;;;;;2.85;1.57;;;;;;;16.69;41.43;100476.05;1724803;82;21656;-65
2021/05/31 07:36:50;;;;;;;4.83;1.70;;;;;;;16.57;42.09;100484.23;1719002;82;21031;-65
2021/05/31 07:39:16;;;;;;;3.27;1.40;;;;;;;16.61;42.10;100475.22;1713220;82;21052;-65
2021/05/31 07:41:43;;;;;;;2.22;1.50;;;;;;;16.50;41.75;100472.39;1718627;81;21151;-65
2021/05/31 07:44:10;;;;;;;6.08;1.30;;;;;;;16.14;40.83;100472.30;1721206;82;21100;-65
2021/05/31 07:46:37;;;;;;;4.65;1.55;;;;;;;15.95;41.81;100471.67;1715988;82;21479;-65
2021/05/31 07:49:04;;;;;;;3.27;1.50;;;;;;;16.00;42.14;100464.36;1717043;81;21019;-66
2021/05/31 07:51:32;;;;;;;5.87;1.87;;;;;;;15.89;41.61;100469.77;1700101;82;20979;-65
2021/05/31 07:53:59;;;;;;;3.62;1.52;;;;;;;15.86;42.66;100467.31;1701062;82;21016;-65
2021/05/31 07:56:27;;;;;;;3.10;1.47;;;;;;;15.89;41.80;100471.55;1680822;83;21028;-64
2021/05/31 07:58:56;;;;;;;2.87;1.50;;;;;;;15.76;42.10;100468.76;1702408;82;20997;-65
2021/05/31 08:01:24;;;;;;;2.95;1.37;;;;;;;15.82;42.33;100469.75;1699764;82;22155;-66
2021/05/31 08:03:51;;;;;;;2.85;1.27;;;;;;;15.98;42.49;100470.17;1717684;82;21095;-65
2021/05/31 08:06:19;;;;;;;3.12;1.45;;;;;;;15.81;42.69;100469.35;1705513;82;21120;-65
2021/05/31 08:08:46;;;;;;;4.58;1.12;;;;;;;15.53;42.70;100466.55;1732069;81;21067;-65
2021/05/31 08:11:13;;;;;;;;;;;;;;;15.58;42.49;100475.89;1736703;81;21099;-65
2021/05/31 08:13:40;;;;;;;3.17;1.00;;;;;;;15.63;42.76;100473.02;1735202;80;21335;-66
2021/05/31 08:16:12;;;;;;;9.78;1.40;;;;;;;15.76;42.79;100468.76;1738423;81;21509;-65
2021/05/31 08:18:44;;;;;;;1.42;1.07;;;;;;;16.14;42.67;100463.55;1701524;82;20989;-65
2021/05/31 08:21:10;;;;;;;;;;;;;;;16.53;41.49;100452.42;1722916;82;21752;-65
2021/05/31 08:23:39;;;;;;;3.75;1.37;;;;;;;16.41;42.36;100465.00;1715360;82;20208;-66
2021/05/31 08:26:07;;;;;;;20.57;2.20;;;;;;;16.41;42.25;100462.37;1712188;82;22301;-65
2021/05/31 08:28:36;;;;;;;2.50;1.05;;;;;;;16.38;41.62;100458.60;1707439;82;21114;-65
2021/05/31 08:31:04;;;;;;;1.90;1.20;;;;;;;16.48;41.93;100458.44;1718380;82;21051;-65
2021/05/31 08:33:31;;;;;;;2.50;0.70;;;;;;;16.45;40.08;100453.36;1719594;81;21003;-65
2021/05/31 08:35:58;;;;;;;3.20;1.25;;;;;;;16.34;41.58;100462.73;1723096;81;21077;-65
2021/05/31 08:38:25;;;;;;;4.40;1.20;;;;;;;16.23;41.69;100451.98;1722922;81;21053;-66
2021/05/31 08:40:52;;;;;;;6.53;1.37;;;;;;;16.41;41.64;100458.41;1722584;81;24889;-65
2021/05/31 08:43:21;;;;;;;2.50;0.90;;;;;;;16.34;41.01;100462.73;1715009;81;21029;-65
2021/05/31 08:45:48;;;;;;;6.75;1.00;;;;;;;16.39;41.86;100456.37;1716639;81;21185;-65
2021/05/31 08:48:17;;;;;;;;;;;;;;;16.60;41.32;100451.58;1722158;81;21094;-65
2021/05/31 08:50:44;;;;;;;2.42;1.20;;;;;;;16.46;41.10;100449.77;1726065;81;21071;-65
2021/05/31 08:53:11;;;;;;;1.52;1.12;;;;;;;16.45;40.96;100463.91;1723670;81;25654;-65
2021/05/31 08:55:37;;;;;;;2.05;0.93;;;;;;;16.24;39.86;100449.72;1698972;82;21151;-64
2021/05/31 08:58:04;;;;;;;10.13;1.30;;;;;;;16.31;40.68;100447.11;1713053;82;21173;-65
2021/05/31 09:00:35;;;;;;;5.67;1.30;;;;;;;16.04;38.39;100450.89;1722113;81;20968;-65
2021/05/31 09:03:06;;;;;;;2.85;1.05;;;;;;;15.86;39.53;100440.97;1697038;83;21093;-65
2021/05/31 09:05:42;;;;;;;2.22;1.20;;;;;;;16.05;40.40;100450.45;1694396;81;21151;-65
2021/05/31 09:08:15;;;;;;;2.62;0.95;;;;;;;16.24;40.44;100448.41;1717352;81;21659;-65
2021/05/31 09:10:52;;;;;;;2.98;0.88;;;;;;;16.46;40.64;100444.50;1721401;81;21374;-65
2021/05/31 09:13:34;;;;;;;4.15;1.30;;;;;;;16.42;40.10;100441.69;1721717;81;21684;-65
2021/05/31 09:16:15;;;;;;;1.57;0.93;;;;;;;16.40;39.42;100439.59;1718998;81;21102;-65
2021/05/31 09:18:58;;;;;;;2.52;1.10;;;;;;;16.26;40.25;100438.62;1714851;81;20997;-65
2021/05/31 09:21:35;;;;;;;3.22;1.10;;;;;;;16.20;39.92;100436.37;1715764;81;21095;-65
2021/05/31 09:24:09;;;;;;;4.67;1.22;;;;;;;16.24;39.70;100431.28;1697968;81;20965;-63
2021/05/31 09:26:56;;;;;;;3.50;1.12;;;;;;;16.07;39.69;100420.42;1690676;83;21149;-63
2021/05/31 09:29:24;;;;;;;2.17;1.00;;;;;;;16.34;40.13;100432.91;1669347;84;21089;-66
2021/05/31 09:32:09;;;;;;;1.90;0.82;;;;;;;16.36;39.81;100422.30;1693926;82;21030;-65
2021/05/31 09:34:36;;;;;;;2.47;0.80;;;;;;;16.53;40.34;100423.43;1693024;83;21166;-65
2021/05/31 09:37:04;;;;;;;3.05;1.00;;;;;;;16.75;40.46;100423.81;1694872;83;21124;-65
2021/05/31 09:39:40;;;;;;;7.37;1.15;;;;;;;16.92;40.10;100434.66;1691370;82;21097;-65
2021/05/31 09:42:12;;;;;;;4.00;1.22;;;;;;;16.93;40.22;100424.95;1690554;83;21631;-65
2021/05/31 09:44:41;;;;;;;2.08;0.93;;;;;;;16.81;39.64;100412.54;1692254;83;21109;-65
2021/05/31 09:47:08;;;;;;;5.10;0.80;;;;;;;16.94;40.37;100411.68;1688274;83;21067;-65
2021/05/31 09:49:37;;;;;;;1.98;0.88;;;;;;;17.18;40.21;100411.91;1690438;83;21680;-65
2021/05/31 09:52:07;;;;;;;4.85;1.20;;;;;;;17.29;40.17;100409.06;1692651;83;21106;-65
2021/05/31 09:54:40;;;;;;;3.60;1.30;;;;;;;17.46;40.72;100410.13;1695529;83;21197;-65
2021/05/31 09:57:28;;;;;;;1.10;0.80;;;;;;;17.64;40.30;100402.78;1682649;83;21476;-65
2021/05/31 10:00:18;;;;;;;2.15;0.95;;;;;;;17.50;39.50;100403.69;1659834;84;21020;-65
2021/05/31 10:10:43;;;;;;;2.17;1.02;;;;;;;17.24;40.18;100394.83;1675928;83;21209;-64
2021/05/31 10:13:10;;;;;;;3.40;0.82;;;;;;;17.44;40.00;100400.13;1676255;83;21047;-64
2021/05/31 10:15:40;;;;;;;2.33;1.02;;;;;;;17.62;40.12;100396.30;1652350;85;21340;-65
2021/05/31 10:18:12;;;;;;;2.70;0.95;;;;;;;17.55;38.94;100392.36;1658014;84;21691;-65
2021/05/31 10:20:39;;;;;;;1.98;0.82;;;;;;;17.25;38.27;100399.63;1681020;83;21123;-65
2021/05/31 10:23:08;;;;;;;2.15;0.80;;;;;;;17.01;38.28;100389.70;1683636;81;21040;-65
2021/05/31 10:25:40;;;;;;;2.70;1.00;;;;;;;16.93;39.04;100395.94;1698319;82;22037;-64
2021/05/31 10:28:23;;;;;;;2.90;1.20;;;;;;;16.84;39.21;100391.25;1703747;83;21229;-65
2021/05/31 10:30:54;;;;;;;5.47;1.20;;;;;;;16.99;39.53;100392.91;1705466;82;21039;-65
2021/05/31 10:33:23;;;;;;;1.77;0.95;;;;;;;16.98;38.97;100393.86;1694637;83;21105;-64
2021/05/31 10:35:51;;;;;;;1.42;0.90;;;;;;;16.75;38.98;100385.57;1725602;81;21712;-64
2021/05/31 10:38:21;;;;;;;1.52;1.15;;;;;;;16.76;39.37;100379.37;1697547;83;21595;-64
2021/05/31 10:40:52;;;;;;;2.62;1.00;;;;;;;16.85;39.46;100372.67;1724635;81;21677;-65
2021/05/31 10:43:23;;;;;;;4.10;0.82;;;;;;;16.98;39.49;100370.13;1706078;82;24120;-65
2021/05/31 10:46:03;;;;;;;2.85;1.25;;;;;;;16.97;39.44;100381.59;1702330;82;21083;-65
2021/05/31 10:48:31;;;;;;;4.28;1.15;;;;;;;16.98;39.43;100368.32;1705805;82;21087;-66
2021/05/31 10:51:00;;;;;;;3.10;1.00;;;;;;;16.94;39.18;100362.01;1683414;82;21067;-64
2021/05/31 10:53:31;;;;;;;1.20;0.80;;;;;;;16.82;38.47;100358.84;1686269;82;20999;-65
2021/05/31 10:56:06;;;;;;;2.33;0.90;;;;;;;16.67;38.88;100358.83;1703790;82;20949;-68
2021/05/31 10:58:41;;;;;;;2.98;1.12;;;;;;;16.83;38.96;100360.05;1701988;82;21688;-66
2021/05/31 11:01:12;;;;;;;3.58;0.93;;;;;;;16.88;39.25;100356.65;1704610;82;21083;-65
2021/05/31 11:04:10;;;;;;;1.47;0.82;;;;;;;16.97;39.30;100361.36;1726947;81;21066;-65
2021/05/31 11:06:43;;;;;;;6.87;1.15;;;;;;;17.01;38.64;100367.28;1695216;83;21019;-65
2021/05/31 11:09:20;;;;;;;2.37;0.85;;;;;;;16.80;38.80;100354.12;1705047;82;21031;-63
2021/05/31 11:12:15;;;;;;;2.58;1.32;;;;;;;16.85;39.01;100356.00;1722870;81;27214;-65
2021/05/31 11:14:45;;;;;;;2.30;1.10;;;;;;;16.96;39.22;100358.81;1656284;84;21745;-66
2021/05/31 11:17:18;;;;;;;3.85;0.98;;;;;;;17.04;39.25;100353.89;1661695;84;21683;-66
2021/05/31 11:19:49;;;;;;;1.55;0.90;;;;;;;16.96;37.69;100348.26;1651186;84;21171;-65
2021/05/31 11:22:30;;;;;;;2.52;1.32;;;;;;;16.92;39.02;100354.69;1640933;84;21071;-65
2021/05/31 11:25:10;;;;;;;2.70;1.12;;;;;;;17.08;39.12;100339.55;1617537;85;21031;-65
2021/05/31 11:27:42;;;;;;;2.27;1.00;;;;;;;17.28;39.43;100336.96;1667113;84;21028;-66
2021/05/31 11:30:14;;;;;;;1.98;1.02;;;;;;;17.44;39.34;100339.41;1635918;84;21019;-65
2021/05/31 11:32:43;;;;;;;4.12;1.07;;;;;;;17.43;38.99;100340.38;1654810;84;20982;-65
2021/05/31 11:35:13;;;;;;;11.48;1.10;;;;;;;17.36;39.29;100336.44;1662265;84;21017;-64
2021/05/31 11:37:43;;;;;;;2.55;1.17;;;;;;;17.28;38.83;100340.05;1651683;85;21778;-65
2021/05/31 11:40:25;;;;;;;3.10;1.27;;;;;;;17.12;39.03;100334.94;1672995;84;21028;-67
2021/05/31 11:43:02;;;;;;;1.92;1.05;;;;;;;17.17;39.31;100331.06;1667351;83;21120;-66
2021/05/31 11:45:37;;;;;;;3.92;1.40;;;;;;;17.28;39.28;100328.17;1648119;84;21103;-67
2021/05/31 11:48:08;;;;;;;3.65;0.90;;;;;;;17.20;39.20;100320.30;1648406;84;21617;-66
2021/05/31 11:50:40;;;;;;;2.92;1.00;;;;;;;17.27;39.19;100333.09;1670265;83;21124;-66
2021/05/31 11:53:05;;;;;;;3.40;1.05;;;;;;;17.34;39.66;100321.19;1669381;84;21078;-65
2021/05/31 11:55:33;;;;;;;4.20;1.27;;;;;;;17.64;39.61;100320.48;1652818;84;21077;-66
2021/05/31 11:58:00;;;;;;;13.48;1.95;;;;;;;17.68;37.73;100325.91;1644420;84;21035;-65
2021/05/31 12:00:30;;;;;;;3.27;1.35;;;;;;;17.33;38.85;100316.84;1649705;84;25186;-66